< Typhoon 195808 1958 Season Typhoon 195810 >
Typhoon 195809 (VIOLA)
General InformationTrack Information on Google Maps || Disaster Info.ResourceGoogle EarthGE AnimationAtom FeedGeoJSON
Detalied Best Track (Time Zone = UTC)
Year Month Day Hour Lat. Long. Pressure (hPa) Wind (kt) Class Image Chart
1958 7 8 00 10.8 147.6 1006 0 2 -- Chart
1958 7 8 06 11.2 146.5 1000 0 9 -- Chart
1958 7 8 12 11.7 145.8 995 0 9 -- Chart
1958 7 8 18 12.2 145.2 995 0 9 -- Chart
1958 7 9 00 12.7 144.4 995 0 9 -- Chart
1958 7 9 06 12.9 144.1 995 0 9 -- Chart
1958 7 9 12 13.7 143.3 990 0 9 -- Chart
1958 7 9 18 14.2 142.6 990 0 9 -- Chart
1958 7 10 00 15.1 141.7 985 0 9 -- Chart
1958 7 10 06 16.5 141.1 980 0 9 -- Chart
1958 7 10 12 17.8 140.5 975 0 9 -- Chart
1958 7 10 18 19.0 140.0 970 0 9 -- Chart
1958 7 11 00 20.3 139.6 970 0 9 -- Chart
1958 7 11 06 22.0 139.6 965 0 9 -- Chart
1958 7 11 12 23.4 139.8 965 0 9 -- Chart
1958 7 11 18 24.6 140.1 965 0 9 -- Chart
1958 7 12 00 25.9 140.4 970 0 9 -- Chart
1958 7 12 06 27.3 141.5 970 0 9 -- Chart
1958 7 12 12 28.2 143.0 975 0 9 -- Chart
1958 7 12 18 28.8 144.5 975 0 9 -- Chart
1958 7 13 00 29.4 146.0 970 0 9 -- Chart
1958 7 13 06 30.3 147.9 985 0 9 -- Chart
1958 7 13 12 31.9 149.0 990 0 9 -- Chart
1958 7 13 18 33.4 150.0 990 0 9 -- Chart
1958 7 14 00 34.0 150.5 995 0 9 -- Chart
1958 7 14 06 34.6 151.0 1000 0 6 -- Chart
1958 7 14 12 35.1 151.5 1000 0 6 -- Chart
1958 7 14 18 35.8 152.1 998 0 6 -- Chart
1958 7 15 00 36.3 152.9 998 0 6 -- Chart
1958 7 15 06 37.0 155.2 1000 0 6 -- Chart
1958 7 15 12 38.5 158.0 1006 0 6 -- Chart
1958 7 15 18 40.0 162.0 1006 0 6 -- Chart
1958 7 16 00 41.0 166.0 1006 0 6 -- Chart
1958 7 16 06 45.0 174.0 1004 0 6 -- Chart
1958 7 16 12 45.0 175.0 1004 0 6 -- Chart
1958 7 16 18 46.7 177.0 1002 0 6 -- Chart
1958 7 17 00 49.0 177.0 1004 0 6 -- Chart
1958 7 17 06 49.0 177.0 1002 0 6 -- Chart
Japan Meteorological Agency Best Track Data | Correction Date : 1989-06-01
< Typhoon 195808 1958 Season Typhoon 195810 >

Help